Dewey, Arkansas
Current Conditions -  °F | °C
As of 9:56 PM on Friday 31 Oct 2014 (Local Time) from KSRC Reporting Station
Clear Clear  
Wind Chill: 38°   Ceiling: Unl
Heat Index: 42°   Visibility: 10mi
Dew Point: 22°   Wind: 6mph
Humidity: 45%   Direction: 350°N
Pressure: 30.39"   Gusts: NA
Location:  35.4331°N, 91.7663°W
Report Text: KSRC 010256Z AUTO 35005KT 10SM CLR 06/M06 A3039 RMK AO2 SLP300 T00561056 51024 TSNO
Loading
Personal Weather Stations






























Interactive Weather Map
Tropical Storm Tracking
New forecast layout! Learn more

10-Day Weather Forecast

Advertisements
Track Severe Weather on mobile